Time;durP1;ratioP1;P1;durP2;ratioP2;P2;SDS_P1;SDS_P2;PMS_P1;PMS_P2;Temp;Humidity;BMP_temperature;BMP_pressure;BME280_temperature;BME280_humidity;BME280_pressure;Samples;Min_cycle;Max_cycle;Signal;HPM_P1;HPM_P2
2021/08/08 00:00:57;;;;;;;;;;;;;;;25.47;54.12;100584.59;4991305;28;1985;-69
2021/08/08 00:03:25;;;;;;;;;;;;;;;25.45;53.93;100587.38;4990175;28;1092;-69
2021/08/08 00:05:52;;;;;;;;;;;;;;;25.46;54.17;100578.44;4991251;28;1261;-68
2021/08/08 00:08:19;;;;;;;;;;;;;;;25.45;54.21;100576.72;4990956;28;1375;-68
2021/08/08 00:10:47;;;;;;;;;;;;;;;25.46;54.14;100583.75;4973656;28;1249;-68
2021/08/08 00:13:14;;;;;;;;;;;;;;;25.43;53.90;100586.69;4990989;28;1635;-69
2021/08/08 00:15:41;;;;;;;;;;;;;;;25.41;54.25;100585.16;4990908;28;1265;-69
2021/08/08 00:18:07;;;;;;;;;;;;;;;25.36;54.00;100582.88;4991014;28;898;-68
2021/08/08 00:20:34;;;;;;;;;;;;;;;25.33;54.22;100584.94;4990150;28;1910;-68
2021/08/08 00:23:02;;;;;;;;;;;;;;;25.34;54.42;100579.50;4990448;28;767;-69
2021/08/08 00:25:28;;;;;;;;;;;;;;;25.37;54.57;100579.22;4990187;28;1277;-69
2021/08/08 00:27:55;;;;;;;;;;;;;;;25.39;54.69;100582.59;4990727;28;1080;-68
2021/08/08 00:30:22;;;;;;;;;;;;;;;25.39;55.00;100574.59;4990482;28;1235;-69
2021/08/08 00:32:49;;;;;;;;;;;;;;;25.32;54.48;100572.63;4990411;28;1009;-68
2021/08/08 00:35:16;;;;;;;;;;;;;;;25.37;53.41;100573.03;4990528;28;1267;-68
2021/08/08 00:37:44;;;;;;;;;;;;;;;25.29;53.26;100584.38;4990496;28;1037;-69
2021/08/08 00:40:12;;;;;;;;;;;;;;;25.25;53.34;100593.63;4990179;28;1912;-68
2021/08/08 00:42:39;;;;;;;;;;;;;;;25.23;52.59;100587.56;4972942;28;1033;-69
2021/08/08 00:45:06;;;;;;;;;;;;;;;25.21;52.62;100578.00;4990553;28;1277;-69
2021/08/08 00:47:33;;;;;;;;;;;;;;;25.23;52.60;100576.91;4990009;28;811;-68
2021/08/08 00:50:00;;;;;;;;;;;;;;;25.26;53.35;100581.16;4990110;28;1355;-68
2021/08/08 00:52:27;;;;;;;;;;;;;;;25.28;53.23;100580.03;4972586;28;1093;-69
2021/08/08 00:54:54;;;;;;;;;;;;;;;25.32;53.38;100576.09;4972736;28;1292;-69
2021/08/08 00:57:20;;;;;;;;;;;;;;;25.27;54.26;100580.16;4990356;28;1207;-67
2021/08/08 00:59:47;;;;;;;;;;;;;;;25.31;54.07;100578.91;4972330;28;1963;-68
2021/08/08 01:02:14;;;;;;;;;;;;;;;25.30;54.23;100582.56;4990055;28;933;-69
2021/08/08 01:04:44;;;;;;;;;;;;;;;25.25;54.12;100585.63;4989996;28;1326;-68
2021/08/08 01:07:22;;;;;;;;;;;;;;;25.22;54.49;100571.72;4990044;28;1081;-69
2021/08/08 01:09:49;;;;;;;;;;;;;;;25.26;53.96;100570.47;4972880;28;1308;-68
2021/08/08 01:12:16;;;;;;;;;;;;;;;25.21;54.08;100559.34;4989813;28;1087;-68
2021/08/08 01:14:44;;;;;;;;;;;;;;;25.21;54.34;100573.53;4989779;28;1355;-68
2021/08/08 01:17:13;;;;;;;;;;;;;;;25.20;54.04;100574.50;4972229;28;1159;-68
2021/08/08 01:20:00;;;;;;;;;;;;;;;25.20;53.44;100571.03;4989768;28;1910;-68
2021/08/08 01:22:28;;;;;;;;;;;;;;;25.23;52.71;100560.91;4989638;28;1145;-67
2021/08/08 01:24:59;;;;;;;;;;;;;;;25.17;51.77;100566.78;4971952;28;1271;-67
2021/08/08 01:27:26;;;;;;;;;;;;;;;25.18;50.73;100565.81;4989789;28;1076;-66
2021/08/08 01:29:54;;;;;;;;;;;;;;;25.16;50.44;100565.09;4989405;28;1841;-67
2021/08/08 01:32:22;;;;;;;;;;;;;;;25.13;50.51;100576.03;4989220;28;1013;-68
2021/08/08 01:34:48;;;;;;;;;;;;;;;25.14;49.91;100571.53;4971989;28;1265;-67
2021/08/08 01:37:19;;;;;;;;;;;;;;;25.08;50.22;100580.06;4971709;28;1217;-68
2021/08/08 01:39:54;;;;;;;;;;;;;;;25.16;49.82;100582.91;4971422;28;1915;-69
2021/08/08 01:42:22;;;;;;;;;;;;;;;25.16;49.93;100581.09;4989012;28;922;-69
2021/08/08 01:44:50;;;;;;;;;;;;;;;25.16;49.75;100585.56;4989389;28;1265;-68
2021/08/08 01:47:18;;;;;;;;;;;;;;;25.08;49.69;100582.75;4989621;28;854;-68
2021/08/08 01:49:47;;;;;;;;;;;;;;;24.99;49.73;100584.34;4989404;28;1355;-67
2021/08/08 01:52:13;;;;;;;;;;;;;;;25.04;49.41;100576.81;4989287;28;1013;-68
2021/08/08 01:54:40;;;;;;;;;;;;;;;25.04;49.10;100576.81;4988404;28;1363;-68
2021/08/08 01:57:07;;;;;;;;;;;;;;;25.07;49.45;100578.38;4989067;28;740;-68
2021/08/08 01:59:34;;;;;;;;;;;;;;;25.00;49.12;100591.38;4988419;28;1950;-68
2021/08/08 02:02:11;;;;;;;;;;;;;;;25.00;48.94;100588.72;4988556;28;1050;-69
2021/08/08 02:04:39;;;;;;;;;;;;;;;24.89;49.26;100600.31;4988304;28;1346;-68
2021/08/08 02:07:12;;;;;;;;;;;;;;;24.89;49.59;100596.78;4971665;28;1125;-68
2021/08/08 02:09:38;;;;;;;;;;;;;;;24.82;49.71;100583.13;4988787;28;1349;-67
2021/08/08 02:12:05;;;;;;;;;;;;;;;24.88;49.54;100581.75;4989166;28;1654;-69
2021/08/08 02:14:32;;;;;;;;;;;;;;;24.81;49.92;100586.75;4988823;28;1060;-67
2021/08/08 02:17:00;;;;;;;;;;;;;;;24.88;49.69;100595.09;4971801;28;935;-68
2021/08/08 02:19:26;;;;;;;;;;;;;;;24.85;49.54;100595.34;4988939;28;1980;-69
2021/08/08 02:21:53;;;;;;;;;;;;;;;24.78;49.51;100592.31;4988418;28;1316;-69
2021/08/08 02:24:20;;;;;;;;;;;;;;;24.86;49.51;100605.03;4988584;28;1250;-69
2021/08/08 02:26:47;;;;;;;;;;;;;;;24.79;49.33;100598.50;4988088;28;1229;-69
2021/08/08 02:29:14;;;;;;;;;;;;;;;24.78;49.25;100599.47;4988459;28;1143;-69
2021/08/08 02:31:41;;;;;;;;;;;;;;;24.74;49.03;100596.25;4988189;28;1215;-69
2021/08/08 02:34:09;;;;;;;;;;;;;;;24.80;49.06;100595.72;4971217;28;1322;-70
2021/08/08 02:36:36;;;;;;;;;;;;;;;24.77;48.88;100585.31;4989101;28;1209;-69
2021/08/08 02:39:03;;;;;;;;;;;;;;;24.76;49.21;100590.75;4988656;28;1150;-67
2021/08/08 02:41:30;;;;;;;;;;;;;;;24.72;49.25;100590.16;4988250;28;1907;-69
2021/08/08 02:43:57;;;;;;;;;;;;;;;24.76;48.74;100594.28;4988404;28;1122;-69
2021/08/08 02:46:23;;;;;;;;;;;;;;;24.74;48.69;100593.56;4992619;28;1229;-68
2021/08/08 02:48:51;;;;;;;;;;;;;;;24.76;48.59;100588.09;4993708;28;799;-66
2021/08/08 02:51:18;;;;;;;;;;;;;;;24.75;48.65;100602.38;4976351;28;1371;-68
2021/08/08 02:53:45;;;;;;;;;;;;;;;24.66;48.97;100608.47;4975569;28;995;-68
2021/08/08 02:56:11;;;;;;;;;;;;;;;24.72;48.59;100602.63;4992595;28;1319;-68
2021/08/08 02:58:38;;;;;;;;;;;;;;;24.74;48.06;100601.56;4992281;28;934;-67
2021/08/08 03:01:07;;;;;;;;;;;;;;;24.70;48.34;100600.13;4991932;28;1902;-67
2021/08/08 03:03:34;;;;;;;;;;;;;;;24.68;48.22;100603.91;4991612;28;1204;-67
2021/08/08 03:06:01;;;;;;;;;;;;;;;24.69;48.49;100602.91;4992470;28;1279;-68
2021/08/08 03:08:47;;;;;;;;;;;;;;;24.72;48.35;100607.97;4992009;28;1321;-68
2021/08/08 03:11:14;;;;;;;;;;;;;;;24.68;48.20;100606.56;4992176;28;1364;-69
2021/08/08 03:13:41;;;;;;;;;;;;;;;24.64;48.26;100610.44;4974578;28;855;-68
2021/08/08 03:16:07;;;;;;;;;;;;;;;24.57;48.54;100611.91;4992279;28;1391;-69
2021/08/08 03:18:34;;;;;;;;;;;;;;;24.59;48.14;100607.31;4991982;28;842;-69
2021/08/08 03:21:01;;;;;;;;;;;;;;;24.59;48.10;100605.50;4991560;28;1993;-69
2021/08/08 03:23:28;;;;;;;;;;;;;;;24.54;48.45;100609.50;4974107;28;1038;-69
2021/08/08 03:25:55;;;;;;;;;;;;;;;24.48;48.72;100613.53;4992006;28;1339;-69
2021/08/08 03:28:21;;;;;;;;;;;;;;;24.54;48.27;100609.50;4991551;28;885;-69
2021/08/08 03:30:48;;;;;;;;;;;;;;;24.56;48.16;100612.91;4991299;28;1265;-69
2021/08/08 03:33:15;;;;;;;;;;;;;;;24.56;48.49;100619.09;4957569;28;1303;-69
2021/08/08 03:35:42;;;;;;;;;;;;;;;24.58;48.29;100613.63;4991702;28;1320;-69
2021/08/08 03:38:08;;;;;;;;;;;;;;;24.54;48.51;100613.03;4991281;28;1135;-69
2021/08/08 03:40:35;;;;;;;;;;;;;;;24.54;48.24;100614.84;4974128;28;1915;-68
2021/08/08 03:43:02;;;;;;;;;;;;;;;24.53;48.46;100629.13;4991766;28;1095;-69
2021/08/08 03:45:29;;;;;;;;;;;;;;;24.47;48.42;100623.34;4991705;28;1358;-69
2021/08/08 03:47:56;;;;;;;;;;;;;;;24.58;48.55;100633.09;4991160;28;748;-67
2021/08/08 03:50:22;;;;;;;;;;;;;;;24.50;48.30;100635.53;4991466;28;1302;-68
2021/08/08 03:52:49;;;;;;;;;;;;;;;24.47;48.18;100643.78;4990988;28;834;-68
2021/08/08 03:55:16;;;;;;;;;;;;;;;24.48;48.26;100649.00;4990531;28;1280;-69
2021/08/08 03:57:42;;;;;;;;;;;;;;;24.50;48.50;100651.50;4973615;28;1260;-69
2021/08/08 04:00:09;;;;;;;;;;;;;;;24.50;48.33;100650.69;4991018;28;1903;-69
2021/08/08 04:02:36;;;;;;;;;;;;;;;24.48;48.29;100659.66;4990807;28;854;-69
2021/08/08 04:05:03;;;;;;;;;;;;;;;24.47;48.25;100652.63;4973293;28;1371;-69
2021/08/08 04:07:30;;;;;;;;;;;;;;;24.47;48.42;100657.94;4990873;28;784;-69
2021/08/08 04:09:56;;;;;;;;;;;;;;;24.39;48.55;100656.88;4990964;28;1272;-69
2021/08/08 04:12:23;;;;;;;;;;;;;;;24.47;48.37;100652.63;4990815;28;1443;-68
2021/08/08 04:14:50;;;;;;;;;;;;;;;24.45;48.71;100656.38;4990791;28;1296;-69
2021/08/08 04:17:16;;;;;;;;;;;;;;;24.41;48.43;100654.94;4973478;28;784;-69
2021/08/08 04:19:43;;;;;;;;;;;;;;;24.37;48.49;100662.34;4990793;28;1301;-69
2021/08/08 04:22:10;;;;;;;;;;;;;;;24.31;48.58;100670.00;4990492;28;2021;-69
2021/08/08 04:24:36;;;;;;;;;;;;;;;24.35;48.74;100669.59;4990512;28;1257;-68
2021/08/08 04:27:03;;;;;;;;;;;;;;;24.39;48.71;100672.88;4972746;28;1375;-69
2021/08/08 04:29:30;;;;;;;;;;;;;;;24.37;48.83;100677.47;4990469;28;1018;-70
2021/08/08 04:31:57;;;;;;;;;;;;;;;24.33;48.96;100681.34;4990365;28;1252;-69
2021/08/08 04:34:23;;;;;;;;;;;;;;;24.41;48.92;100677.09;4973157;28;1083;-69
2021/08/08 04:36:50;;;;;;;;;;;;;;;24.37;48.97;100677.47;4990674;28;1216;-68
2021/08/08 04:39:17;;;;;;;;;;;;;;;24.39;49.00;100673.72;4990764;28;916;-68
2021/08/08 04:41:44;;;;;;;;;;;;;;;24.41;49.03;100679.75;4990421;28;1902;-68
2021/08/08 04:44:10;;;;;;;;;;;;;;;24.41;48.92;100684.22;4990351;28;1121;-68
2021/08/08 04:46:37;;;;;;;;;;;;;;;24.38;48.88;100674.69;4990437;28;1305;-68
2021/08/08 04:49:04;;;;;;;;;;;;;;;24.34;49.06;100678.56;4972769;28;1273;-69
2021/08/08 04:51:30;;;;;;;;;;;;;;;24.42;49.13;100685.91;4990444;28;1315;-69
2021/08/08 04:53:57;;;;;;;;;;;;;;;24.50;49.01;100690.63;4989115;28;1124;-70
2021/08/08 04:56:24;;;;;;;;;;;;;;;24.47;48.93;100687.22;4989753;28;1276;-69
2021/08/08 04:58:50;;;;;;;;;;;;;;;24.38;49.49;100697.78;4989609;28;776;-70
2021/08/08 05:01:17;;;;;;;;;;;;;;;24.41;49.87;100702.84;4990024;28;1969;-68
2021/08/08 05:03:44;;;;;;;;;;;;;;;24.41;49.42;100703.72;4990238;28;1061;-67
2021/08/08 05:06:11;;;;;;;;;;;;;;;24.48;49.83;100702.25;4990052;28;1332;-69
2021/08/08 05:08:37;;;;;;;;;;;;;;;24.38;50.34;100697.78;4989343;28;862;-69
2021/08/08 05:11:04;;;;;;;;;;;;;;;24.36;50.60;100713.03;4989772;28;1274;-69
2021/08/08 05:13:31;;;;;;;;;;;;;;;24.30;50.89;100721.53;4990005;28;1049;-69
2021/08/08 05:15:58;;;;;;;;;;;;;;;24.33;50.69;100724.78;4971702;28;1591;-69
2021/08/08 05:18:25;;;;;;;;;;;;;;;24.37;50.84;100726.25;4989785;28;1057;-69
2021/08/08 05:20:52;;;;;;;;;;;;;;;24.38;50.96;100732.41;4989752;28;1915;-68
2021/08/08 05:23:18;;;;;;;;;;;;;;;24.43;50.83;100740.88;4989541;28;882;-69
2021/08/08 05:25:45;;;;;;;;;;;;;;;24.44;51.45;100739.88;4971618;28;1273;-68
2021/08/08 05:28:12;;;;;;;;;;;;;;;24.47;51.20;100737.81;4988909;28;767;-68
2021/08/08 05:30:39;;;;;;;;;;;;;;;24.45;51.78;100744.25;4989764;28;1363;-68
2021/08/08 05:33:05;;;;;;;;;;;;;;;24.42;51.92;100748.00;4989734;28;1017;-68
2021/08/08 05:35:32;;;;;;;;;;;;;;;24.40;52.27;100749.97;4989632;28;1336;-66
2021/08/08 05:37:58;;;;;;;;;;;;;;;24.35;52.66;100754.78;4966785;28;1530;-68
2021/08/08 05:40:25;;;;;;;;;;;;;;;24.38;52.57;100757.19;4950996;28;1911;-69
2021/08/08 05:42:52;;;;;;;;;;;;;;;24.47;52.72;100763.59;4949894;28;926;-69
2021/08/08 05:45:20;;;;;;;;;;;;;;;24.44;53.14;100769.16;4952747;28;1527;-68
2021/08/08 05:47:46;;;;;;;;;;;;;;;24.50;53.20;100773.19;4958090;28;1018;-68
2021/08/08 05:50:14;;;;;;;;;;;;;;;24.52;53.57;100780.06;4931945;29;1424;-69
2021/08/08 05:52:45;;;;;;;;;;;;;;;24.51;53.73;100772.19;4949774;29;1199;-69
2021/08/08 05:55:12;;;;;;;;;;;;;;;24.52;53.78;100780.06;4949595;29;1379;-70
2021/08/08 05:57:38;;;;;;;;;;;;;;;24.48;53.98;100782.13;4949533;29;776;-69
2021/08/08 06:00:05;;;;;;;;;;;;;;;24.54;53.82;100778.13;4949188;29;1277;-69
2021/08/08 06:02:33;;;;;;;;;;;;;;;24.58;53.80;100776.06;4931845;29;1898;-70
2021/08/08 06:05:03;;;;;;;;;;;;;;;24.60;53.72;100777.63;4949588;29;1249;-71
2021/08/08 06:07:30;;;;;;;;;;;;;;;24.62;54.10;100777.53;4949138;29;1121;-69
2021/08/08 06:09:59;;;;;;;;;;;;;;;24.59;54.15;100785.75;4949595;28;1383;-70
2021/08/08 06:12:26;;;;;;;;;;;;;;;24.54;54.09;100791.44;4949228;28;1318;-71
2021/08/08 06:14:54;;;;;;;;;;;;;;;24.54;54.10;100790.59;4949384;28;1258;-69
2021/08/08 06:17:21;;;;;;;;;;;;;;;24.51;54.82;100797.00;4949306;28;1077;-71
2021/08/08 06:19:48;;;;;;;;;;;;;;;24.44;55.10;100783.34;4949134;28;1372;-68
2021/08/08 06:22:14;;;;;;;;;;;;;;;24.50;55.16;100800.63;4949625;28;1907;-68
2021/08/08 06:24:41;;;;;;;;;;;;;;;24.61;54.91;100807.78;4950255;28;1277;-71
2021/08/08 06:27:08;;;;;;;;;;;;;;;24.58;54.71;100808.88;4950097;28;775;-69
2021/08/08 06:29:37;;;;;;;;;;;;;;;24.62;54.72;100810.34;4949084;29;1372;-70
2021/08/08 06:32:05;;;;;;;;;;;;;;;24.64;54.46;100804.88;4960188;28;1396;-71
2021/08/08 06:34:31;;;;;;;;;;;;;;;24.58;54.43;100808.03;4949324;29;1042;-70
2021/08/08 06:36:58;;;;;;;;;;;;;;;24.60;54.10;100800.75;4952297;28;1551;-70
2021/08/08 06:39:25;;;;;;;;;;;;;;;24.64;54.10;100807.53;4956507;28;1216;-71
2021/08/08 06:41:51;;;;;;;;;;;;;;;24.67;54.19;100807.28;4960455;28;1906;-71
2021/08/08 06:44:18;;;;;;;;;;;;;;;24.66;54.06;100810.91;4949965;28;1090;-68
2021/08/08 06:46:45;;;;;;;;;;;;;;;24.61;54.35;100811.28;4949915;29;1210;-69
2021/08/08 06:49:11;;;;;;;;;;;;;;;24.67;54.14;100812.59;4950142;29;1122;-70
2021/08/08 06:51:38;;;;;;;;;;;;;;;24.66;54.35;100809.09;4949569;29;1206;-71
2021/08/08 06:54:05;;;;;;;;;;;;;;;24.67;54.42;100818.78;4948981;28;1143;-68
2021/08/08 06:56:32;;;;;;;;;;;;;;;24.61;54.30;100815.75;4932379;29;1301;-70
2021/08/08 06:58:59;;;;;;;;;;;;;;;24.63;54.27;100827.13;4949475;29;855;-71
2021/08/08 07:01:26;;;;;;;;;;;;;;;24.69;54.16;100826.63;4949227;29;1914;-68
2021/08/08 07:03:53;;;;;;;;;;;;;;;24.73;53.98;100820.09;4949645;28;1038;-70
2021/08/08 07:06:19;;;;;;;;;;;;;;;24.69;54.00;100826.63;4949853;29;1281;-68
2021/08/08 07:08:46;;;;;;;;;;;;;;;24.69;53.45;100826.63;4961092;28;1664;-66
2021/08/08 07:11:13;;;;;;;;;;;;;;;24.74;53.77;100822.66;4961529;28;1356;-68
2021/08/08 07:13:40;;;;;;;;;;;;;;;24.73;53.43;100820.09;4958768;28;1306;-67
2021/08/08 07:16:08;;;;;;;;;;;;;;;24.73;53.29;100825.44;4953706;28;1225;-67
2021/08/08 07:18:35;;;;;;;;;;;;;;;24.70;53.00;100823.00;4967235;28;1128;-69
2021/08/08 07:21:02;;;;;;;;;;;;;;;24.72;53.17;100816.59;4961210;28;1895;-69
2021/08/08 07:23:28;;;;;;;;;;;;;;;24.74;52.83;100822.66;4939920;28;1496;-65
2021/08/08 07:25:55;;;;;;;;;;;;;;;24.72;53.17;100823.72;4950226;28;1305;-66
2021/08/08 07:28:22;;;;;;;;;;;;;;;24.75;52.88;100820.81;4966056;28;1495;-66
2021/08/08 07:30:48;;;;;;;;;;;;;;;24.80;52.42;100827.50;4958801;28;1267;-67
2021/08/08 07:33:15;;;;;;;;;;;;;;;24.72;52.45;100837.91;4962269;28;1508;-67
2021/08/08 07:35:42;;;;;;;;;;;;;;;24.74;52.68;100830.66;4951685;28;1352;-67
2021/08/08 07:38:09;;;;;;;;;;;;;;;24.72;52.38;100832.56;4960526;28;1574;-67
2021/08/08 07:40:36;;;;;;;;;;;;;;;24.79;52.79;100840.91;4959728;28;1503;-68
2021/08/08 07:43:04;;;;;;;;;;;;;;;24.74;52.32;100838.63;4953533;28;1988;-66
2021/08/08 07:45:31;;;;;;;;;;;;;;;24.79;52.39;100852.44;4964663;28;1577;-68
2021/08/08 07:47:58;;;;;;;;;;;;;;;24.91;53.27;100853.28;4969378;28;1562;-67
2021/08/08 07:50:25;;;;;;;;;;;;;;;24.94;52.49;100850.38;4959766;28;1554;-65
2021/08/08 07:52:51;;;;;;;;;;;;;;;24.93;52.76;100861.97;4964718;28;1464;-62
2021/08/08 07:55:18;;;;;;;;;;;;;;;25.00;52.87;100857.84;4970390;28;1408;-64
2021/08/08 07:57:45;;;;;;;;;;;;;;;24.99;52.74;100857.00;4970182;28;1097;-65
2021/08/08 08:00:11;;;;;;;;;;;;;;;24.93;52.87;100862.84;4970561;28;1289;-65
2021/08/08 08:02:38;;;;;;;;;;;;;;;24.94;52.79;100861.88;4967612;28;1922;-63
2021/08/08 08:05:05;;;;;;;;;;;;;;;24.96;52.46;100872.38;4963710;28;1403;-63
2021/08/08 08:07:32;;;;;;;;;;;;;;;24.98;52.55;100865.13;4933583;29;1058;-64
2021/08/08 08:09:59;;;;;;;;;;;;;;;25.08;52.53;100860.72;4953962;28;1393;-63
2021/08/08 08:12:26;;;;;;;;;;;;;;;25.17;52.63;100872.50;4938455;28;1344;-70
2021/08/08 08:14:52;;;;;;;;;;;;;;;25.20;52.66;100875.72;4967632;28;1306;-65
2021/08/08 08:17:19;;;;;;;;;;;;;;;25.28;52.47;100872.44;4968821;28;1259;-68
2021/08/08 08:19:46;;;;;;;;;;;;;;;25.26;52.38;100885.06;4970562;28;1347;-73
2021/08/08 08:22:16;;;;;;;;;;;;;;;25.20;52.36;100883.72;4963585;28;1972;-68
2021/08/08 08:24:45;;;;;;;;;;;;;;;25.23;52.50;100885.31;4938460;29;1332;-68
2021/08/08 08:27:12;;;;;;;;;;;;;;;25.22;51.82;100891.59;4951011;29;796;-68
2021/08/08 08:29:39;;;;;;;;;;;;;;;25.17;51.90;100891.16;4950862;28;1343;-68
2021/08/08 08:32:06;;;;;;;;;;;;;;;25.17;51.83;100897.31;4933372;29;1077;-69
2021/08/08 08:34:33;;;;;;;;;;;;;;;25.23;51.58;100896.78;4950345;28;1199;-68
2021/08/08 08:37:00;;;;;;;;;;;;;;;25.20;51.60;100897.06;4956202;28;1519;-69
2021/08/08 08:39:26;;;;;;;;;;;;;;;25.22;51.67;100912.94;4969727;28;1845;-75
2021/08/08 08:41:57;;;;;;;;;;;;;;;25.14;51.57;100910.88;4951500;28;1974;-68
2021/08/08 08:44:23;;;;;;;;;;;;;;;25.20;51.47;100917.56;4952529;28;1040;-66
2021/08/08 08:46:50;;;;;;;;;;;;;;;25.21;51.81;100919.22;4969665;28;1328;-67
2021/08/08 08:49:21;;;;;;;;;;;;;;;25.22;51.33;100915.59;4969452;28;1054;-68
2021/08/08 08:51:53;;;;;;;;;;;;;;;25.18;51.61;100924.81;4969388;28;1304;-68
2021/08/08 08:54:21;;;;;;;;;;;;;;;25.22;51.65;100934.25;4968781;28;952;-65
2021/08/08 08:56:48;;;;;;;;;;;;;;;25.26;51.70;100936.53;4952109;28;1202;-67
2021/08/08 08:59:15;;;;;;;;;;;;;;;25.19;51.57;100935.38;4969337;28;1071;-67
2021/08/08 09:01:42;;;;;;;;;;;;;;;25.21;51.22;100932.56;4968935;28;1906;-66
2021/08/08 09:04:09;;;;;;;;;;;;;;;25.23;51.52;100930.63;4968839;28;1024;-66
2021/08/08 09:06:40;;;;;;;;;;;;;;;25.27;51.59;100935.56;4951244;28;1590;-64
2021/08/08 09:09:07;;;;;;;;;;;;;;;25.25;51.11;100932.19;4969047;28;926;-67
2021/08/08 09:11:38;;;;;;;;;;;;;;;25.14;51.43;100934.88;4950962;28;1302;-68
2021/08/08 09:14:07;;;;;;;;;;;;;;;25.12;51.17;100941.31;4968080;28;1139;-69
2021/08/08 09:16:38;;;;;;;;;;;;;;;25.10;51.36;100940.59;4967979;28;1277;-66
2021/08/08 09:19:06;;;;;;;;;;;;;;;25.05;51.80;100945.44;4968619;28;912;-67
2021/08/08 09:21:34;;;;;;;;;;;;;;;25.07;51.79;100951.50;4969338;28;1902;-67
2021/08/08 09:24:02;;;;;;;;;;;;;;;25.07;51.52;100949.69;4969361;28;937;-66
2021/08/08 09:26:31;;;;;;;;;;;;;;;25.12;51.35;100951.97;4951271;28;1167;-67
2021/08/08 09:29:07;;;;;;;;;;;;;;;25.12;51.86;100955.47;4969418;28;787;-68
2021/08/08 09:31:38;;;;;;;;;;;;;;;25.04;52.06;100955.25;4968797;28;1173;-68
2021/08/08 09:34:05;;;;;;;;;;;;;;;25.11;51.74;100959.09;4968623;28;1097;-68
2021/08/08 09:36:40;;;;;;;;;;;;;;;25.09;52.02;100957.53;4951733;28;1218;-70
2021/08/08 09:39:07;;;;;;;;;;;;;;;25.14;51.71;100968.69;4968707;28;925;-67
2021/08/08 09:41:35;;;;;;;;;;;;;;;25.14;52.15;100969.53;4968362;28;1930;-67
2021/08/08 09:44:08;;;;;;;;;;;;;;;25.13;51.92;100962.50;4967771;28;1031;-66
2021/08/08 09:46:36;;;;;;;;;;;;;;;25.15;51.97;100973.03;4968139;28;1178;-66
2021/08/08 09:49:06;;;;;;;;;;;;;;;25.09;52.25;100971.72;4968891;28;1279;-66
2021/08/08 09:51:45;;;;;;;;;;;;;;;25.06;52.69;100969.28;4968508;28;1161;-68
2021/08/08 09:54:12;;;;;;;;;;;;;;;25.08;52.38;100966.53;4968213;28;1072;-67
2021/08/08 09:56:39;;;;;;;;;;;;;;;25.12;52.30;100976.81;4968089;28;1218;-68
2021/08/08 09:59:05;;;;;;;;;;;;;;;25.16;52.16;100975.59;4967795;28;1077;-68
2021/08/08 10:01:41;;;;;;;;;;;;;;;25.18;52.34;100978.13;4968296;28;1980;-68
2021/08/08 10:04:08;;;;;;;;;;;;;;;25.16;52.39;100975.59;4968124;28;1037;-68
2021/08/08 10:06:36;;;;;;;;;;;;;;;25.15;52.43;100973.88;4967265;28;1265;-67
2021/08/08 10:09:04;;;;;;;;;;;;;;;25.16;52.43;100983.59;4968213;28;1155;-68
2021/08/08 10:11:31;;;;;;;;;;;;;;;25.14;52.48;100990.03;4968384;28;1242;-68
2021/08/08 10:14:02;;;;;;;;;;;;;;;25.16;52.80;100991.59;4968206;28;840;-66
2021/08/08 10:16:31;;;;;;;;;;;;;;;25.19;52.88;100991.34;4950486;28;1356;-67
2021/08/08 10:19:01;;;;;;;;;;;;;;;25.19;52.79;100991.34;4968516;28;1251;-67
2021/08/08 10:21:31;;;;;;;;;;;;;;;25.18;52.84;100988.78;4968045;28;1273;-68
2021/08/08 10:24:00;;;;;;;;;;;;;;;25.18;52.44;100988.78;4968256;28;1126;-68
2021/08/08 10:26:27;;;;;;;;;;;;;;;25.19;52.62;100985.16;4967670;28;1194;-67
2021/08/08 10:28:55;;;;;;;;;;;;;;;25.19;52.77;100980.69;4967858;28;799;-66
2021/08/08 10:31:26;;;;;;;;;;;;;;;25.14;52.67;100990.03;4968117;28;1261;-67
2021/08/08 10:33:54;;;;;;;;;;;;;;;25.18;53.10;100986.13;4968038;28;1121;-67
2021/08/08 10:36:25;;;;;;;;;;;;;;;25.26;52.93;100981.84;4967830;28;1253;-67
2021/08/08 10:38:53;;;;;;;;;;;;;;;25.21;52.47;100969.88;4967381;28;993;-67
2021/08/08 10:41:20;;;;;;;;;;;;;;;25.23;52.90;100987.44;4966184;28;1424;-67
2021/08/08 10:43:47;;;;;;;;;;;;;;;25.27;52.65;100980.03;4955653;28;1981;-68
2021/08/08 10:46:15;;;;;;;;;;;;;;;25.26;52.46;100981.84;4931096;29;1265;-68
2021/08/08 10:48:43;;;;;;;;;;;;;;;25.29;52.53;100973.63;4948236;28;927;-67
2021/08/08 10:51:15;;;;;;;;;;;;;;;25.34;52.72;100979.44;4938021;28;1687;-67
2021/08/08 10:53:42;;;;;;;;;;;;;;;25.34;52.51;100979.44;4967870;28;1033;-68
2021/08/08 10:56:10;;;;;;;;;;;;;;;25.41;52.50;100985.13;4967397;28;1277;-67
2021/08/08 10:58:39;;;;;;;;;;;;;;;25.42;52.73;100985.00;4967346;28;1419;-67
2021/08/08 11:01:18;;;;;;;;;;;;;;;25.44;52.24;100982.22;4950329;28;1233;-66
2021/08/08 11:04:07;;;;;;;;;;;;;;;25.47;52.38;100974.78;4956626;28;2029;-66
2021/08/08 11:06:34;;;;;;;;;;;;;;;25.53;52.57;100974.31;4932991;29;1222;-67
2021/08/08 11:09:02;;;;;;;;;;;;;;;25.51;52.35;100981.59;4934553;29;1104;-67
2021/08/08 11:11:30;;;;;;;;;;;;;;;25.52;52.78;100980.66;4934663;28;1226;-68
2021/08/08 11:14:14;;;;;;;;;;;;;;;25.54;52.49;100981.34;4951910;29;1117;-67
2021/08/08 11:16:42;;;;;;;;;;;;;;;25.50;52.52;100987.91;4964264;28;1352;-67
2021/08/08 11:19:09;;;;;;;;;;;;;;;25.50;52.67;100979.09;4971458;28;1126;-66
2021/08/08 11:21:36;;;;;;;;;;;;;;;25.52;53.04;100987.78;4971358;28;1220;-66
2021/08/08 11:24:04;;;;;;;;;;;;;;;25.51;52.73;100976.28;4970747;28;1907;-66
2021/08/08 11:26:31;;;;;;;;;;;;;;;25.49;53.05;100988.91;4953203;28;1252;-69
2021/08/08 11:29:01;;;;;;;;;;;;;;;25.49;53.19;100991.56;4970457;28;1064;-68
2021/08/08 11:31:29;;;;;;;;;;;;;;;25.44;52.71;100985.69;4953053;28;1234;-68
2021/08/08 11:34:00;;;;;;;;;;;;;;;25.44;53.00;100991.03;4971028;28;1037;-67
2021/08/08 11:36:31;;;;;;;;;;;;;;;25.48;53.01;100986.31;4953213;28;1284;-67
2021/08/08 11:38:59;;;;;;;;;;;;;;;25.46;52.63;100991.78;4970816;28;815;-66
2021/08/08 11:41:26;;;;;;;;;;;;;;;25.49;52.63;101004.91;4970739;28;1222;-67
2021/08/08 11:44:06;;;;;;;;;;;;;;;25.53;52.86;101001.00;4970658;28;1915;-67
2021/08/08 11:46:33;;;;;;;;;;;;;;;25.53;52.72;101002.84;4970464;28;1352;-67
2021/08/08 11:49:00;;;;;;;;;;;;;;;25.53;52.57;101000.16;4952694;28;925;-67
2021/08/08 11:51:27;;;;;;;;;;;;;;;25.50;52.62;101005.75;4970347;28;1257;-66
2021/08/08 11:53:54;;;;;;;;;;;;;;;25.53;52.35;101005.50;4970267;28;847;-67
2021/08/08 11:56:24;;;;;;;;;;;;;;;25.52;52.74;101004.66;4970771;28;1390;-67
2021/08/08 11:58:52;;;;;;;;;;;;;;;25.47;52.57;101009.47;4970155;28;934;-66
2021/08/08 12:01:20;;;;;;;;;;;;;;;25.42;52.92;101013.47;4970418;28;1285;-66
2021/08/08 12:03:47;;;;;;;;;;;;;;;25.44;52.99;101014.22;4970768;28;1970;-67
2021/08/08 12:06:17;;;;;;;;;;;;;;;25.44;52.61;101015.03;4969916;28;1407;-68
2021/08/08 12:08:44;;;;;;;;;;;;;;;25.41;52.74;101011.78;4970213;28;796;-68
2021/08/08 12:11:10;;;;;;;;;;;;;;;25.43;53.17;101012.50;4970643;28;1356;-67
2021/08/08 12:13:37;;;;;;;;;;;;;;;25.48;52.60;101020.97;4970418;28;1124;-70
2021/08/08 12:16:11;;;;;;;;;;;;;;;25.48;53.00;101019.19;4970328;28;1261;-68
2021/08/08 12:18:41;;;;;;;;;;;;;;;25.41;53.27;101015.28;4953287;28;772;-70
2021/08/08 12:21:17;;;;;;;;;;;;;;;25.37;53.37;101019.19;4970419;28;1327;-68
2021/08/08 12:23:44;;;;;;;;;;;;;;;25.45;53.24;101014.06;4970234;28;1998;-68
2021/08/08 12:26:11;;;;;;;;;;;;;;;25.39;53.64;101014.56;4970127;28;1250;-67
2021/08/08 12:28:37;;;;;;;;;;;;;;;25.43;53.67;101010.69;4969550;28;1081;-67
2021/08/08 12:31:08;;;;;;;;;;;;;;;25.49;53.86;101015.56;4969885;28;1245;-68
2021/08/08 12:33:35;;;;;;;;;;;;;;;25.56;53.79;101010.59;4952625;28;1305;-68
2021/08/08 12:36:10;;;;;;;;;;;;;;;25.59;53.65;101009.47;4952445;28;1270;-67
2021/08/08 12:38:47;;;;;;;;;;;;;;;25.56;53.75;101010.59;4969726;28;882;-66
2021/08/08 12:41:24;;;;;;;;;;;;;;;25.53;54.11;101011.66;4970022;28;1217;-68
2021/08/08 12:43:54;;;;;;;;;;;;;;;25.63;53.61;101008.25;4970015;28;1910;-67
2021/08/08 12:46:27;;;;;;;;;;;;;;;25.71;53.67;101001.31;4969525;28;1356;-66
2021/08/08 12:48:57;;;;;;;;;;;;;;;25.69;53.80;101013.06;4951931;28;1252;-67
2021/08/08 12:51:24;;;;;;;;;;;;;;;25.69;53.51;101003.25;4948584;28;1309;-71